sensor_id;sensor_type;location;lat;lon;timestamp;P1;durP1;ratioP1;P2;durP2;ratioP2
17398;SDS011;8817;48.170;8.592;2023-04-24T00:01:20;4.70;;;4.60;;
17398;SDS011;8817;48.170;8.592;2023-04-24T00:03:47;4.70;;;4.60;;
17398;SDS011;8817;48.170;8.592;2023-04-24T00:06:14;4.70;;;4.60;;
17398;SDS011;8817;48.170;8.592;2023-04-24T00:08:41;4.80;;;4.60;;
17398;SDS011;8817;48.170;8.592;2023-04-24T00:11:10;4.63;;;4.53;;
17398;SDS011;8817;48.170;8.592;2023-04-24T00:13:37;5.17;;;4.73;;
17398;SDS011;8817;48.170;8.592;2023-04-24T00:16:04;4.60;;;4.50;;
17398;SDS011;8817;48.170;8.592;2023-04-24T00:18:31;4.70;;;4.60;;
17398;SDS011;8817;48.170;8.592;2023-04-24T00:20:58;4.77;;;4.67;;
17398;SDS011;8817;48.170;8.592;2023-04-24T00:23:25;4.90;;;4.80;;
17398;SDS011;8817;48.170;8.592;2023-04-24T00:25:52;4.70;;;4.60;;
17398;SDS011;8817;48.170;8.592;2023-04-24T00:28:20;4.83;;;4.60;;
17398;SDS011;8817;48.170;8.592;2023-04-24T00:30:47;4.80;;;4.70;;
17398;SDS011;8817;48.170;8.592;2023-04-24T00:33:14;4.80;;;4.60;;
17398;SDS011;8817;48.170;8.592;2023-04-24T00:35:41;4.80;;;4.70;;
17398;SDS011;8817;48.170;8.592;2023-04-24T00:38:08;4.97;;;4.80;;
17398;SDS011;8817;48.170;8.592;2023-04-24T00:40:35;4.80;;;4.70;;
17398;SDS011;8817;48.170;8.592;2023-04-24T00:43:01;4.90;;;4.70;;
17398;SDS011;8817;48.170;8.592;2023-04-24T00:45:30;5.00;;;4.80;;
17398;SDS011;8817;48.170;8.592;2023-04-24T00:47:57;4.70;;;4.60;;
17398;SDS011;8817;48.170;8.592;2023-04-24T00:50:24;4.63;;;4.53;;
17398;SDS011;8817;48.170;8.592;2023-04-24T00:52:51;4.60;;;4.50;;
17398;SDS011;8817;48.170;8.592;2023-04-24T00:55:19;4.60;;;4.50;;
17398;SDS011;8817;48.170;8.592;2023-04-24T00:57:46;4.70;;;4.60;;
17398;SDS011;8817;48.170;8.592;2023-04-24T01:00:15;4.83;;;4.73;;
17398;SDS011;8817;48.170;8.592;2023-04-24T01:02:44;4.70;;;4.60;;
17398;SDS011;8817;48.170;8.592;2023-04-24T01:05:12;4.90;;;4.80;;
17398;SDS011;8817;48.170;8.592;2023-04-24T01:07:40;4.90;;;4.80;;
17398;SDS011;8817;48.170;8.592;2023-04-24T01:10:10;4.97;;;4.83;;
17398;SDS011;8817;48.170;8.592;2023-04-24T01:12:38;4.80;;;4.70;;
17398;SDS011;8817;48.170;8.592;2023-04-24T01:15:06;4.80;;;4.70;;
17398;SDS011;8817;48.170;8.592;2023-04-24T01:17:34;5.07;;;4.90;;
17398;SDS011;8817;48.170;8.592;2023-04-24T01:20:03;5.13;;;4.93;;
17398;SDS011;8817;48.170;8.592;2023-04-24T01:22:32;4.90;;;4.80;;
17398;SDS011;8817;48.170;8.592;2023-04-24T01:25:00;4.90;;;4.80;;
17398;SDS011;8817;48.170;8.592;2023-04-24T01:27:27;4.90;;;4.80;;
17398;SDS011;8817;48.170;8.592;2023-04-24T01:29:54;5.03;;;4.93;;
17398;SDS011;8817;48.170;8.592;2023-04-24T01:32:21;4.90;;;4.80;;
17398;SDS011;8817;48.170;8.592;2023-04-24T01:34:48;4.80;;;4.70;;
17398;SDS011;8817;48.170;8.592;2023-04-24T01:37:16;5.00;;;4.80;;
17398;SDS011;8817;48.170;8.592;2023-04-24T01:39:45;4.90;;;4.70;;
17398;SDS011;8817;48.170;8.592;2023-04-24T01:42:12;4.97;;;4.87;;
17398;SDS011;8817;48.170;8.592;2023-04-24T01:44:39;5.03;;;4.93;;
17398;SDS011;8817;48.170;8.592;2023-04-24T01:47:07;5.20;;;4.87;;
17398;SDS011;8817;48.170;8.592;2023-04-24T01:49:34;5.00;;;4.90;;
17398;SDS011;8817;48.170;8.592;2023-04-24T01:52:01;5.00;;;4.90;;
17398;SDS011;8817;48.170;8.592;2023-04-24T01:54:28;5.00;;;4.90;;
17398;SDS011;8817;48.170;8.592;2023-04-24T01:56:56;5.20;;;5.00;;
17398;SDS011;8817;48.170;8.592;2023-04-24T01:59:23;5.10;;;5.00;;
17398;SDS011;8817;48.170;8.592;2023-04-24T02:01:53;4.90;;;4.80;;
17398;SDS011;8817;48.170;8.592;2023-04-24T02:04:19;5.00;;;4.90;;
17398;SDS011;8817;48.170;8.592;2023-04-24T02:06:46;5.20;;;5.00;;
17398;SDS011;8817;48.170;8.592;2023-04-24T02:09:13;4.80;;;4.70;;
17398;SDS011;8817;48.170;8.592;2023-04-24T02:11:40;5.07;;;4.97;;
17398;SDS011;8817;48.170;8.592;2023-04-24T02:14:08;5.20;;;5.10;;
17398;SDS011;8817;48.170;8.592;2023-04-24T02:16:35;5.20;;;5.10;;
17398;SDS011;8817;48.170;8.592;2023-04-24T02:19:02;5.30;;;5.20;;
17398;SDS011;8817;48.170;8.592;2023-04-24T02:21:29;5.23;;;5.10;;
17398;SDS011;8817;48.170;8.592;2023-04-24T02:23:58;5.17;;;5.07;;
17398;SDS011;8817;48.170;8.592;2023-04-24T02:26:25;5.30;;;5.20;;
17398;SDS011;8817;48.170;8.592;2023-04-24T02:28:52;5.40;;;5.20;;
17398;SDS011;8817;48.170;8.592;2023-04-24T02:31:20;5.67;;;5.20;;
17398;SDS011;8817;48.170;8.592;2023-04-24T02:33:47;5.63;;;5.10;;
17398;SDS011;8817;48.170;8.592;2023-04-24T02:36:14;5.33;;;5.20;;
17398;SDS011;8817;48.170;8.592;2023-04-24T02:38:41;5.20;;;5.10;;
17398;SDS011;8817;48.170;8.592;2023-04-24T02:41:08;5.60;;;5.40;;
17398;SDS011;8817;48.170;8.592;2023-04-24T02:43:34;5.30;;;5.20;;
17398;SDS011;8817;48.170;8.592;2023-04-24T02:46:01;5.90;;;5.50;;
17398;SDS011;8817;48.170;8.592;2023-04-24T02:48:30;5.50;;;5.30;;
17398;SDS011;8817;48.170;8.592;2023-04-24T02:50:57;5.50;;;5.40;;
17398;SDS011;8817;48.170;8.592;2023-04-24T02:53:24;5.53;;;5.43;;
17398;SDS011;8817;48.170;8.592;2023-04-24T02:55:51;5.60;;;5.37;;
17398;SDS011;8817;48.170;8.592;2023-04-24T02:58:18;5.47;;;5.33;;
17398;SDS011;8817;48.170;8.592;2023-04-24T03:00:45;5.47;;;5.33;;
17398;SDS011;8817;48.170;8.592;2023-04-24T03:03:12;5.40;;;5.30;;
17398;SDS011;8817;48.170;8.592;2023-04-24T03:05:41;5.30;;;5.20;;
17398;SDS011;8817;48.170;8.592;2023-04-24T03:08:08;5.40;;;5.20;;
17398;SDS011;8817;48.170;8.592;2023-04-24T03:10:35;5.37;;;5.27;;
17398;SDS011;8817;48.170;8.592;2023-04-24T03:13:02;5.10;;;5.00;;
17398;SDS011;8817;48.170;8.592;2023-04-24T03:15:29;5.40;;;5.30;;
17398;SDS011;8817;48.170;8.592;2023-04-24T03:17:56;5.40;;;5.30;;
17398;SDS011;8817;48.170;8.592;2023-04-24T03:20:22;5.90;;;5.70;;
17398;SDS011;8817;48.170;8.592;2023-04-24T03:22:51;5.67;;;5.47;;
17398;SDS011;8817;48.170;8.592;2023-04-24T03:25:18;5.87;;;5.67;;
17398;SDS011;8817;48.170;8.592;2023-04-24T03:27:45;5.40;;;5.30;;
17398;SDS011;8817;48.170;8.592;2023-04-24T03:30:12;5.60;;;5.40;;
17398;SDS011;8817;48.170;8.592;2023-04-24T03:32:38;5.40;;;5.30;;
17398;SDS011;8817;48.170;8.592;2023-04-24T03:35:06;5.60;;;5.40;;
17398;SDS011;8817;48.170;8.592;2023-04-24T03:37:33;5.60;;;5.40;;
17398;SDS011;8817;48.170;8.592;2023-04-24T03:40:02;5.70;;;5.50;;
17398;SDS011;8817;48.170;8.592;2023-04-24T03:42:31;5.80;;;5.60;;
17398;SDS011;8817;48.170;8.592;2023-04-24T03:44:57;5.20;;;5.10;;
17398;SDS011;8817;48.170;8.592;2023-04-24T03:47:24;5.30;;;5.20;;
17398;SDS011;8817;48.170;8.592;2023-04-24T03:49:51;5.50;;;5.30;;
17398;SDS011;8817;48.170;8.592;2023-04-24T03:52:19;5.27;;;5.17;;
17398;SDS011;8817;48.170;8.592;2023-04-24T03:54:46;5.57;;;5.40;;
17398;SDS011;8817;48.170;8.592;2023-04-24T03:57:14;5.60;;;5.40;;
17398;SDS011;8817;48.170;8.592;2023-04-24T03:59:41;5.57;;;5.40;;
17398;SDS011;8817;48.170;8.592;2023-04-24T04:02:08;5.37;;;5.27;;
17398;SDS011;8817;48.170;8.592;2023-04-24T04:04:35;5.47;;;5.27;;
17398;SDS011;8817;48.170;8.592;2023-04-24T04:07:02;5.70;;;5.50;;
17398;SDS011;8817;48.170;8.592;2023-04-24T04:09:30;5.50;;;5.40;;
17398;SDS011;8817;48.170;8.592;2023-04-24T04:11:57;5.50;;;5.40;;
17398;SDS011;8817;48.170;8.592;2023-04-24T04:14:26;5.20;;;5.10;;
17398;SDS011;8817;48.170;8.592;2023-04-24T04:16:53;5.37;;;5.27;;
17398;SDS011;8817;48.170;8.592;2023-04-24T04:19:20;5.50;;;5.30;;
17398;SDS011;8817;48.170;8.592;2023-04-24T04:21:47;5.30;;;5.20;;
17398;SDS011;8817;48.170;8.592;2023-04-24T04:24:17;6.70;;;5.40;;
17398;SDS011;8817;48.170;8.592;2023-04-24T04:26:45;5.40;;;5.30;;
17398;SDS011;8817;48.170;8.592;2023-04-24T04:29:12;5.47;;;5.37;;
17398;SDS011;8817;48.170;8.592;2023-04-24T04:31:41;5.27;;;5.17;;
17398;SDS011;8817;48.170;8.592;2023-04-24T04:34:08;5.70;;;5.40;;
17398;SDS011;8817;48.170;8.592;2023-04-24T04:36:36;5.70;;;5.50;;
17398;SDS011;8817;48.170;8.592;2023-04-24T04:39:05;5.80;;;5.60;;
17398;SDS011;8817;48.170;8.592;2023-04-24T04:41:32;6.10;;;5.80;;
17398;SDS011;8817;48.170;8.592;2023-04-24T04:44:00;5.73;;;5.53;;
17398;SDS011;8817;48.170;8.592;2023-04-24T04:46:29;6.40;;;6.00;;
17398;SDS011;8817;48.170;8.592;2023-04-24T04:48:58;7.80;;;5.70;;
17398;SDS011;8817;48.170;8.592;2023-04-24T04:51:27;6.50;;;6.10;;
17398;SDS011;8817;48.170;8.592;2023-04-24T04:53:56;6.87;;;6.30;;
17398;SDS011;8817;48.170;8.592;2023-04-24T04:56:23;6.30;;;5.97;;
17398;SDS011;8817;48.170;8.592;2023-04-24T04:58:49;6.67;;;6.23;;
17398;SDS011;8817;48.170;8.592;2023-04-24T05:01:16;7.27;;;6.67;;
17398;SDS011;8817;48.170;8.592;2023-04-24T05:03:43;6.80;;;6.50;;
17398;SDS011;8817;48.170;8.592;2023-04-24T05:06:11;6.83;;;6.50;;
17398;SDS011;8817;48.170;8.592;2023-04-24T05:08:38;7.07;;;6.77;;
17398;SDS011;8817;48.170;8.592;2023-04-24T05:11:05;6.77;;;6.40;;
17398;SDS011;8817;48.170;8.592;2023-04-24T05:13:32;6.87;;;6.50;;
17398;SDS011;8817;48.170;8.592;2023-04-24T05:15:59;6.47;;;6.20;;
17398;SDS011;8817;48.170;8.592;2023-04-24T05:18:26;7.00;;;6.50;;
17398;SDS011;8817;48.170;8.592;2023-04-24T05:20:53;6.50;;;6.20;;
17398;SDS011;8817;48.170;8.592;2023-04-24T05:23:22;6.40;;;6.20;;
17398;SDS011;8817;48.170;8.592;2023-04-24T05:25:48;6.70;;;6.40;;
17398;SDS011;8817;48.170;8.592;2023-04-24T05:28:15;6.40;;;6.10;;
17398;SDS011;8817;48.170;8.592;2023-04-24T05:30:42;6.30;;;6.10;;
17398;SDS011;8817;48.170;8.592;2023-04-24T05:33:09;6.53;;;6.23;;
17398;SDS011;8817;48.170;8.592;2023-04-24T05:35:36;6.60;;;6.20;;
17398;SDS011;8817;48.170;8.592;2023-04-24T05:38:03;6.80;;;6.40;;
17398;SDS011;8817;48.170;8.592;2023-04-24T05:40:31;6.70;;;6.30;;
17398;SDS011;8817;48.170;8.592;2023-04-24T05:42:58;6.37;;;6.07;;
17398;SDS011;8817;48.170;8.592;2023-04-24T05:45:25;6.10;;;5.80;;
17398;SDS011;8817;48.170;8.592;2023-04-24T05:47:52;6.70;;;6.30;;
17398;SDS011;8817;48.170;8.592;2023-04-24T05:50:20;6.33;;;6.03;;
17398;SDS011;8817;48.170;8.592;2023-04-24T05:52:47;6.40;;;6.10;;
17398;SDS011;8817;48.170;8.592;2023-04-24T05:55:14;10.80;;;6.60;;
17398;SDS011;8817;48.170;8.592;2023-04-24T05:57:44;6.60;;;6.20;;
17398;SDS011;8817;48.170;8.592;2023-04-24T06:00:12;6.43;;;6.13;;
17398;SDS011;8817;48.170;8.592;2023-04-24T06:02:39;6.27;;;6.00;;
17398;SDS011;8817;48.170;8.592;2023-04-24T06:05:06;6.30;;;6.00;;
17398;SDS011;8817;48.170;8.592;2023-04-24T06:07:34;6.00;;;5.70;;
17398;SDS011;8817;48.170;8.592;2023-04-24T06:10:01;5.90;;;5.70;;
17398;SDS011;8817;48.170;8.592;2023-04-24T06:12:28;6.20;;;5.90;;
17398;SDS011;8817;48.170;8.592;2023-04-24T06:14:56;6.40;;;5.87;;
17398;SDS011;8817;48.170;8.592;2023-04-24T06:17:23;5.80;;;5.60;;
17398;SDS011;8817;48.170;8.592;2023-04-24T06:19:50;6.60;;;6.10;;
17398;SDS011;8817;48.170;8.592;2023-04-24T06:22:18;6.20;;;5.90;;
17398;SDS011;8817;48.170;8.592;2023-04-24T06:24:45;6.47;;;5.97;;
17398;SDS011;8817;48.170;8.592;2023-04-24T06:27:13;6.27;;;6.03;;
17398;SDS011;8817;48.170;8.592;2023-04-24T06:29:40;6.40;;;6.00;;
17398;SDS011;8817;48.170;8.592;2023-04-24T06:32:08;6.67;;;6.17;;
17398;SDS011;8817;48.170;8.592;2023-04-24T06:34:35;6.70;;;6.30;;
17398;SDS011;8817;48.170;8.592;2023-04-24T06:37:02;6.70;;;6.30;;
17398;SDS011;8817;48.170;8.592;2023-04-24T06:39:29;6.67;;;6.37;;
17398;SDS011;8817;48.170;8.592;2023-04-24T06:41:56;6.20;;;6.00;;
17398;SDS011;8817;48.170;8.592;2023-04-24T06:44:22;6.20;;;5.93;;
17398;SDS011;8817;48.170;8.592;2023-04-24T06:46:50;6.30;;;6.00;;
17398;SDS011;8817;48.170;8.592;2023-04-24T06:49:18;5.97;;;5.77;;
17398;SDS011;8817;48.170;8.592;2023-04-24T06:51:45;6.20;;;5.90;;
17398;SDS011;8817;48.170;8.592;2023-04-24T06:54:12;6.00;;;5.80;;
17398;SDS011;8817;48.170;8.592;2023-04-24T06:56:38;6.70;;;6.40;;
17398;SDS011;8817;48.170;8.592;2023-04-24T06:59:05;6.50;;;6.00;;
17398;SDS011;8817;48.170;8.592;2023-04-24T07:01:32;5.97;;;5.77;;
17398;SDS011;8817;48.170;8.592;2023-04-24T07:03:59;5.93;;;5.73;;
17398;SDS011;8817;48.170;8.592;2023-04-24T07:06:27;5.90;;;5.70;;
17398;SDS011;8817;48.170;8.592;2023-04-24T07:08:56;5.70;;;5.50;;
17398;SDS011;8817;48.170;8.592;2023-04-24T07:11:23;6.20;;;5.80;;
17398;SDS011;8817;48.170;8.592;2023-04-24T07:13:54;5.73;;;5.53;;
17398;SDS011;8817;48.170;8.592;2023-04-24T07:16:21;6.27;;;5.80;;
17398;SDS011;8817;48.170;8.592;2023-04-24T07:18:48;5.90;;;5.60;;
17398;SDS011;8817;48.170;8.592;2023-04-24T07:21:15;5.93;;;5.73;;
17398;SDS011;8817;48.170;8.592;2023-04-24T07:23:43;6.33;;;6.03;;
17398;SDS011;8817;48.170;8.592;2023-04-24T07:26:10;6.17;;;5.97;;
17398;SDS011;8817;48.170;8.592;2023-04-24T07:28:37;6.17;;;5.80;;
17398;SDS011;8817;48.170;8.592;2023-04-24T07:31:04;6.10;;;5.80;;
17398;SDS011;8817;48.170;8.592;2023-04-24T07:33:30;6.40;;;6.10;;
17398;SDS011;8817;48.170;8.592;2023-04-24T07:35:58;6.60;;;6.20;;
17398;SDS011;8817;48.170;8.592;2023-04-24T07:38:25;5.87;;;5.67;;
17398;SDS011;8817;48.170;8.592;2023-04-24T07:40:53;6.60;;;6.23;;
17398;SDS011;8817;48.170;8.592;2023-04-24T07:43:20;6.27;;;5.97;;
17398;SDS011;8817;48.170;8.592;2023-04-24T07:45:48;6.53;;;6.10;;
17398;SDS011;8817;48.170;8.592;2023-04-24T07:48:15;5.97;;;5.77;;
17398;SDS011;8817;48.170;8.592;2023-04-24T07:50:42;6.20;;;6.00;;
17398;SDS011;8817;48.170;8.592;2023-04-24T07:53:10;6.03;;;5.83;;
17398;SDS011;8817;48.170;8.592;2023-04-24T07:55:37;6.00;;;5.60;;
17398;SDS011;8817;48.170;8.592;2023-04-24T07:58:05;6.00;;;5.77;;
17398;SDS011;8817;48.170;8.592;2023-04-24T08:00:32;6.33;;;6.03;;
17398;SDS011;8817;48.170;8.592;2023-04-24T08:02:59;6.10;;;5.80;;
17398;SDS011;8817;48.170;8.592;2023-04-24T08:05:26;6.13;;;5.93;;
17398;SDS011;8817;48.170;8.592;2023-04-24T08:07:53;6.20;;;5.90;;
17398;SDS011;8817;48.170;8.592;2023-04-24T08:10:20;6.40;;;6.10;;
17398;SDS011;8817;48.170;8.592;2023-04-24T08:12:48;6.53;;;6.23;;
17398;SDS011;8817;48.170;8.592;2023-04-24T08:15:16;6.60;;;6.20;;
17398;SDS011;8817;48.170;8.592;2023-04-24T08:17:43;6.50;;;6.20;;
17398;SDS011;8817;48.170;8.592;2023-04-24T08:20:10;6.00;;;5.70;;
17398;SDS011;8817;48.170;8.592;2023-04-24T08:22:39;6.70;;;6.17;;
17398;SDS011;8817;48.170;8.592;2023-04-24T08:25:06;5.93;;;5.60;;
17398;SDS011;8817;48.170;8.592;2023-04-24T08:27:35;5.87;;;5.67;;
17398;SDS011;8817;48.170;8.592;2023-04-24T08:30:03;6.30;;;6.00;;
17398;SDS011;8817;48.170;8.592;2023-04-24T08:32:32;6.50;;;6.00;;
17398;SDS011;8817;48.170;8.592;2023-04-24T08:34:59;6.70;;;6.30;;
17398;SDS011;8817;48.170;8.592;2023-04-24T08:37:26;6.77;;;6.37;;
17398;SDS011;8817;48.170;8.592;2023-04-24T08:39:54;5.77;;;5.50;;
17398;SDS011;8817;48.170;8.592;2023-04-24T08:42:20;6.20;;;5.93;;
17398;SDS011;8817;48.170;8.592;2023-04-24T08:44:48;6.20;;;5.80;;
17398;SDS011;8817;48.170;8.592;2023-04-24T08:47:15;6.43;;;6.07;;
17398;SDS011;8817;48.170;8.592;2023-04-24T08:49:44;6.70;;;6.40;;
17398;SDS011;8817;48.170;8.592;2023-04-24T08:52:12;6.60;;;6.30;;
17398;SDS011;8817;48.170;8.592;2023-04-24T08:54:39;6.47;;;6.00;;
17398;SDS011;8817;48.170;8.592;2023-04-24T08:57:08;6.37;;;5.97;;
17398;SDS011;8817;48.170;8.592;2023-04-24T08:59:36;6.03;;;5.83;;
17398;SDS011;8817;48.170;8.592;2023-04-24T09:02:04;6.43;;;6.13;;
17398;SDS011;8817;48.170;8.592;2023-04-24T09:04:32;6.60;;;6.30;;
17398;SDS011;8817;48.170;8.592;2023-04-24T09:07:02;6.43;;;6.20;;
17398;SDS011;8817;48.170;8.592;2023-04-24T09:09:32;6.90;;;6.50;;
17398;SDS011;8817;48.170;8.592;2023-04-24T09:11:59;7.33;;;6.93;;
17398;SDS011;8817;48.170;8.592;2023-04-24T09:14:27;7.13;;;6.73;;
17398;SDS011;8817;48.170;8.592;2023-04-24T09:16:56;7.40;;;6.90;;
17398;SDS011;8817;48.170;8.592;2023-04-24T09:19:23;7.13;;;6.73;;
17398;SDS011;8817;48.170;8.592;2023-04-24T09:21:49;6.80;;;6.50;;
17398;SDS011;8817;48.170;8.592;2023-04-24T09:24:21;7.23;;;6.80;;
17398;SDS011;8817;48.170;8.592;2023-04-24T09:26:48;6.70;;;6.40;;
17398;SDS011;8817;48.170;8.592;2023-04-24T09:29:22;7.83;;;6.97;;
17398;SDS011;8817;48.170;8.592;2023-04-24T09:31:49;7.10;;;6.70;;
17398;SDS011;8817;48.170;8.592;2023-04-24T09:34:20;6.63;;;6.33;;
17398;SDS011;8817;48.170;8.592;2023-04-24T09:36:49;7.33;;;6.73;;
17398;SDS011;8817;48.170;8.592;2023-04-24T09:39:16;6.93;;;6.53;;
17398;SDS011;8817;48.170;8.592;2023-04-24T09:41:46;7.60;;;7.00;;
17398;SDS011;8817;48.170;8.592;2023-04-24T09:44:15;8.07;;;7.33;;
17398;SDS011;8817;48.170;8.592;2023-04-24T09:46:43;7.40;;;6.90;;
17398;SDS011;8817;48.170;8.592;2023-04-24T09:49:11;7.13;;;6.63;;
17398;SDS011;8817;48.170;8.592;2023-04-24T09:51:40;7.20;;;6.70;;
17398;SDS011;8817;48.170;8.592;2023-04-24T09:54:13;7.23;;;6.87;;
17398;SDS011;8817;48.170;8.592;2023-04-24T09:56:42;6.77;;;6.47;;
17398;SDS011;8817;48.170;8.592;2023-04-24T09:59:11;7.47;;;7.00;;
17398;SDS011;8817;48.170;8.592;2023-04-24T10:01:38;7.40;;;7.00;;
17398;SDS011;8817;48.170;8.592;2023-04-24T10:04:14;7.20;;;6.80;;
17398;SDS011;8817;48.170;8.592;2023-04-24T10:06:42;7.00;;;6.60;;
17398;SDS011;8817;48.170;8.592;2023-04-24T10:09:10;7.23;;;6.80;;
17398;SDS011;8817;48.170;8.592;2023-04-24T10:11:39;6.97;;;6.27;;
17398;SDS011;8817;48.170;8.592;2023-04-24T10:14:09;6.73;;;6.33;;
17398;SDS011;8817;48.170;8.592;2023-04-24T10:16:38;6.90;;;6.50;;
17398;SDS011;8817;48.170;8.592;2023-04-24T10:19:06;7.10;;;6.70;;
17398;SDS011;8817;48.170;8.592;2023-04-24T10:21:34;6.30;;;6.00;;
17398;SDS011;8817;48.170;8.592;2023-04-24T10:24:02;6.30;;;6.00;;
17398;SDS011;8817;48.170;8.592;2023-04-24T10:26:29;6.47;;;5.93;;
17398;SDS011;8817;48.170;8.592;2023-04-24T10:28:57;6.00;;;5.70;;
17398;SDS011;8817;48.170;8.592;2023-04-24T10:31:25;6.17;;;5.87;;
17398;SDS011;8817;48.170;8.592;2023-04-24T10:33:53;6.27;;;5.87;;
17398;SDS011;8817;48.170;8.592;2023-04-24T10:36:22;5.90;;;5.60;;
17398;SDS011;8817;48.170;8.592;2023-04-24T10:38:51;6.67;;;6.20;;
17398;SDS011;8817;48.170;8.592;2023-04-24T10:41:20;6.00;;;5.80;;
17398;SDS011;8817;48.170;8.592;2023-04-24T10:43:48;6.17;;;5.87;;
17398;SDS011;8817;48.170;8.592;2023-04-24T10:46:30;6.43;;;6.03;;
17398;SDS011;8817;48.170;8.592;2023-04-24T10:48:58;6.20;;;5.83;;
17398;SDS011;8817;48.170;8.592;2023-04-24T10:51:42;6.23;;;6.00;;
17398;SDS011;8817;48.170;8.592;2023-04-24T10:54:24;6.17;;;5.97;;
17398;SDS011;8817;48.170;8.592;2023-04-24T10:56:52;5.73;;;5.53;;
17398;SDS011;8817;48.170;8.592;2023-04-24T10:59:25;5.70;;;5.50;;
17398;SDS011;8817;48.170;8.592;2023-04-24T11:01:53;5.50;;;5.30;;
17398;SDS011;8817;48.170;8.592;2023-04-24T11:04:32;5.73;;;5.53;;
17398;SDS011;8817;48.170;8.592;2023-04-24T11:07:00;5.90;;;5.60;;
17398;SDS011;8817;48.170;8.592;2023-04-24T11:09:28;5.77;;;5.57;;
17398;SDS011;8817;48.170;8.592;2023-04-24T11:12:03;6.20;;;5.77;;
17398;SDS011;8817;48.170;8.592;2023-04-24T11:17:28;5.73;;;5.53;;
17398;SDS011;8817;48.170;8.592;2023-04-24T11:20:01;5.90;;;5.60;;
17398;SDS011;8817;48.170;8.592;2023-04-24T11:22:29;5.80;;;5.60;;
17398;SDS011;8817;48.170;8.592;2023-04-24T11:24:59;5.90;;;5.70;;
17398;SDS011;8817;48.170;8.592;2023-04-24T11:27:29;6.10;;;5.80;;
17398;SDS011;8817;48.170;8.592;2023-04-24T11:30:00;5.70;;;5.50;;
17398;SDS011;8817;48.170;8.592;2023-04-24T11:32:30;5.90;;;5.68;;
17398;SDS011;8817;48.170;8.592;2023-04-24T11:35:02;5.70;;;5.50;;
17398;SDS011;8817;48.170;8.592;2023-04-24T11:37:35;5.50;;;5.40;;
17398;SDS011;8817;48.170;8.592;2023-04-24T11:40:03;5.70;;;5.50;;
17398;SDS011;8817;48.170;8.592;2023-04-24T11:42:33;6.17;;;5.87;;
17398;SDS011;8817;48.170;8.592;2023-04-24T11:45:00;5.70;;;5.50;;
17398;SDS011;8817;48.170;8.592;2023-04-24T11:47:33;6.13;;;5.82;;
17398;SDS011;8817;48.170;8.592;2023-04-24T11:50:00;5.50;;;5.30;;
17398;SDS011;8817;48.170;8.592;2023-04-24T11:52:29;5.63;;;5.43;;
17398;SDS011;8817;48.170;8.592;2023-04-24T11:54:56;5.68;;;5.47;;
17398;SDS011;8817;48.170;8.592;2023-04-24T11:57:24;5.97;;;5.78;;
17398;SDS011;8817;48.170;8.592;2023-04-24T11:59:53;5.70;;;5.50;;
17398;SDS011;8817;48.170;8.592;2023-04-24T12:02:21;5.90;;;5.70;;
17398;SDS011;8817;48.170;8.592;2023-04-24T12:04:48;5.80;;;5.60;;
17398;SDS011;8817;48.170;8.592;2023-04-24T12:07:16;5.60;;;5.40;;
17398;SDS011;8817;48.170;8.592;2023-04-24T12:09:45;6.18;;;5.88;;
17398;SDS011;8817;48.170;8.592;2023-04-24T12:12:12;5.70;;;5.40;;
17398;SDS011;8817;48.170;8.592;2023-04-24T12:14:44;5.90;;;5.38;;
17398;SDS011;8817;48.170;8.592;2023-04-24T12:17:11;5.95;;;5.30;;
17398;SDS011;8817;48.170;8.592;2023-04-24T12:19:44;5.97;;;5.70;;
17398;SDS011;8817;48.170;8.592;2023-04-24T12:22:12;5.45;;;5.10;;
17398;SDS011;8817;48.170;8.592;2023-04-24T12:27:25;5.60;;;5.30;;
17398;SDS011;8817;48.170;8.592;2023-04-24T12:29:53;5.40;;;5.20;;
17398;SDS011;8817;48.170;8.592;2023-04-24T12:32:22;5.73;;;5.53;;
17398;SDS011;8817;48.170;8.592;2023-04-24T12:34:50;6.05;;;5.70;;
17398;SDS011;8817;48.170;8.592;2023-04-24T12:37:17;5.93;;;5.68;;
17398;SDS011;8817;48.170;8.592;2023-04-24T12:39:44;5.57;;;5.40;;
17398;SDS011;8817;48.170;8.592;2023-04-24T12:42:26;6.15;;;5.50;;
17398;SDS011;8817;48.170;8.592;2023-04-24T12:44:57;5.60;;;5.40;;
17398;SDS011;8817;48.170;8.592;2023-04-24T12:47:26;5.63;;;5.43;;
17398;SDS011;8817;48.170;8.592;2023-04-24T12:49:53;5.88;;;5.68;;
17398;SDS011;8817;48.170;8.592;2023-04-24T12:52:20;5.60;;;5.30;;
17398;SDS011;8817;48.170;8.592;2023-04-24T12:54:48;5.30;;;5.18;;
17398;SDS011;8817;48.170;8.592;2023-04-24T12:57:17;5.90;;;5.60;;
17398;SDS011;8817;48.170;8.592;2023-04-24T12:59:44;5.80;;;5.60;;
17398;SDS011;8817;48.170;8.592;2023-04-24T13:02:11;5.72;;;5.53;;
17398;SDS011;8817;48.170;8.592;2023-04-24T13:04:39;5.78;;;5.57;;
17398;SDS011;8817;48.170;8.592;2023-04-24T13:07:06;6.22;;;6.03;;
17398;SDS011;8817;48.170;8.592;2023-04-24T13:09:34;6.05;;;5.85;;
17398;SDS011;8817;48.170;8.592;2023-04-24T13:12:01;5.80;;;5.60;;
17398;SDS011;8817;48.170;8.592;2023-04-24T13:14:31;6.13;;;5.87;;
17398;SDS011;8817;48.170;8.592;2023-04-24T13:16:59;6.10;;;5.80;;
17398;SDS011;8817;48.170;8.592;2023-04-24T13:19:26;5.75;;;5.45;;
17398;SDS011;8817;48.170;8.592;2023-04-24T13:21:54;6.13;;;5.93;;
17398;SDS011;8817;48.170;8.592;2023-04-24T13:24:22;5.97;;;5.75;;
17398;SDS011;8817;48.170;8.592;2023-04-24T13:26:50;6.05;;;5.75;;
17398;SDS011;8817;48.170;8.592;2023-04-24T13:29:17;5.90;;;5.70;;
17398;SDS011;8817;48.170;8.592;2023-04-24T13:31:45;6.22;;;5.72;;
17398;SDS011;8817;48.170;8.592;2023-04-24T13:34:12;6.40;;;6.00;;
17398;SDS011;8817;48.170;8.592;2023-04-24T13:36:39;6.70;;;6.40;;
17398;SDS011;8817;48.170;8.592;2023-04-24T13:39:06;6.47;;;6.23;;
17398;SDS011;8817;48.170;8.592;2023-04-24T13:41:33;6.50;;;6.20;;
17398;SDS011;8817;48.170;8.592;2023-04-24T13:44:01;6.25;;;6.00;;
17398;SDS011;8817;48.170;8.592;2023-04-24T13:46:28;6.70;;;6.30;;
17398;SDS011;8817;48.170;8.592;2023-04-24T13:48:56;6.40;;;6.20;;
17398;SDS011;8817;48.170;8.592;2023-04-24T13:51:24;6.27;;;6.03;;
17398;SDS011;8817;48.170;8.592;2023-04-24T13:53:52;6.70;;;6.30;;
17398;SDS011;8817;48.170;8.592;2023-04-24T13:56:19;5.90;;;5.70;;
17398;SDS011;8817;48.170;8.592;2023-04-24T13:58:47;6.00;;;5.80;;
17398;SDS011;8817;48.170;8.592;2023-04-24T14:01:14;6.40;;;6.17;;
17398;SDS011;8817;48.170;8.592;2023-04-24T14:03:42;6.60;;;6.30;;
17398;SDS011;8817;48.170;8.592;2023-04-24T14:06:10;5.90;;;5.70;;
17398;SDS011;8817;48.170;8.592;2023-04-24T14:08:37;6.20;;;6.00;;
17398;SDS011;8817;48.170;8.592;2023-04-24T14:11:04;6.20;;;5.90;;
17398;SDS011;8817;48.170;8.592;2023-04-24T14:13:31;6.20;;;5.90;;
17398;SDS011;8817;48.170;8.592;2023-04-24T14:15:58;6.10;;;5.87;;
17398;SDS011;8817;48.170;8.592;2023-04-24T14:18:25;6.40;;;6.10;;
17398;SDS011;8817;48.170;8.592;2023-04-24T14:20:52;6.17;;;5.93;;
17398;SDS011;8817;48.170;8.592;2023-04-24T14:23:21;6.03;;;5.77;;
17398;SDS011;8817;48.170;8.592;2023-04-24T14:25:47;6.00;;;5.60;;
17398;SDS011;8817;48.170;8.592;2023-04-24T14:28:16;6.22;;;6.03;;
17398;SDS011;8817;48.170;8.592;2023-04-24T14:30:44;6.50;;;6.10;;
17398;SDS011;8817;48.170;8.592;2023-04-24T14:33:10;5.97;;;5.78;;
17398;SDS011;8817;48.170;8.592;2023-04-24T14:35:38;6.10;;;5.70;;
17398;SDS011;8817;48.170;8.592;2023-04-24T14:38:05;5.85;;;5.55;;
17398;SDS011;8817;48.170;8.592;2023-04-24T14:40:33;5.80;;;5.60;;
17398;SDS011;8817;48.170;8.592;2023-04-24T14:43:00;5.80;;;5.60;;
17398;SDS011;8817;48.170;8.592;2023-04-24T14:45:27;6.30;;;6.00;;
17398;SDS011;8817;48.170;8.592;2023-04-24T14:47:54;6.00;;;5.70;;
17398;SDS011;8817;48.170;8.592;2023-04-24T14:50:21;7.18;;;6.55;;
17398;SDS011;8817;48.170;8.592;2023-04-24T14:52:52;5.70;;;5.50;;
17398;SDS011;8817;48.170;8.592;2023-04-24T14:55:19;5.95;;;5.65;;
17398;SDS011;8817;48.170;8.592;2023-04-24T14:57:47;5.72;;;5.50;;
17398;SDS011;8817;48.170;8.592;2023-04-24T15:00:15;5.53;;;5.32;;
17398;SDS011;8817;48.170;8.592;2023-04-24T15:02:42;5.90;;;5.70;;
17398;SDS011;8817;48.170;8.592;2023-04-24T15:05:09;5.68;;;5.38;;
17398;SDS011;8817;48.170;8.592;2023-04-24T15:07:36;5.88;;;5.57;;
17398;SDS011;8817;48.170;8.592;2023-04-24T15:10:04;5.60;;;5.40;;